Swall Meadows, California
Current Conditions -  °F | °C
As of 1:56 AM on Tuesday 21 Oct 2014 (Local Time) from KBIH Reporting Station
Clear Clear  
Wind Chill: 46°   Ceiling: Unl
Heat Index: 49°   Visibility: 10mi
Dew Point: 21°   Wind: 7mph
Humidity: 33%   Direction: 60°ENE
Pressure: 29.91"   Gusts: NA
Location:  37.4772°N, 118.401°W
Report Text: KBIH 210856Z AUTO 06006KT 10SM CLR 09/M06 A2991 RMK AO2 SLP086 T00941061 50003
Loading
Personal Weather Stations






























Interactive Weather Map
Tropical Storm Tracking
New forecast layout! Learn more

10-Day Weather Forecast

Advertisements
Track Severe Weather on mobile